Time;durP1;ratioP1;P1;durP2;ratioP2;P2;SDS_P1;SDS_P2;PMS_P1;PMS_P2;Temp;Humidity;BMP_temperature;BMP_pressure;BME280_temperature;BME280_humidity;BME280_pressure;Samples;Min_cycle;Max_cycle;Signal;HPM_P1;HPM_P2
2022/01/12 00:01:14;;;;;;;3.00;2.80;;;;;;;12.96;46.84;98076.25;6150700;23;20167;-90
2022/01/12 00:03:42;;;;;;;2.93;2.70;;;;;;;14.78;47.19;98416.91;6126044;23;20221;-89
2022/01/12 00:06:13;;;;;;;2.87;2.67;;;;;;;11.94;46.90;97893.28;6150929;23;20152;-89
2022/01/12 00:08:40;;;;;;;2.90;2.43;;;;;;;14.78;47.32;98414.38;6124956;23;20255;-88
2022/01/12 00:11:09;;;;;;;2.73;2.53;;;;;;;16.00;47.25;98614.66;6129635;23;20238;-82
2022/01/12 00:13:36;;;;;;;2.60;2.40;;;;;;;17.69;47.27;98896.19;6121656;23;20203;-83
2022/01/12 00:16:03;;;;;;;2.77;2.57;;;;;;;18.85;47.28;99098.97;6120955;23;20234;-82
2022/01/12 00:18:30;;;;;;;3.30;3.00;;;;;;;19.22;47.05;99159.16;6121713;23;20202;-82
2022/01/12 00:20:57;;;;;;;3.20;3.00;;;;;;;16.44;46.82;98730.16;6120404;23;20179;-82
2022/01/12 00:23:24;;;;;;;3.13;2.83;;;;;;;19.28;47.05;99165.59;6120450;23;20234;-83
2022/01/12 00:26:12;;;;;;;3.00;2.80;;;;;;;18.76;47.19;99068.69;6121755;23;20531;-80
2022/01/12 00:34:10;;;;;;;3.20;2.60;;;;;;;17.58;47.00;98861.53;6122514;23;20544;-83
2022/01/12 00:36:40;;;;;;;2.90;2.70;;;;;;;18.63;47.00;99043.22;6122808;23;20701;-83
2022/01/12 00:39:10;;;;;;;2.80;2.60;;;;;;;18.63;47.01;99093.28;6123825;23;20206;-82
2022/01/12 00:41:37;;;;;;;3.30;3.00;;;;;;;15.76;46.89;98533.53;6124656;23;20269;-83
2022/01/12 00:44:08;;;;;;;3.00;2.77;;;;;;;17.02;46.94;98765.41;6121739;23;20199;-83
2022/01/12 00:46:35;;;;;;;3.30;2.97;;;;;;;18.79;46.81;99053.59;6100279;23;20182;-82
2022/01/12 00:49:01;;;;;;;2.90;2.70;;;;;;;19.28;47.01;99142.63;6126798;23;20174;-84
2022/01/12 00:51:31;;;;;;;3.33;3.03;;;;;;;18.66;47.04;99068.00;6124912;23;20189;-84
2022/01/12 00:53:58;;;;;;;3.50;3.20;;;;;;;19.08;47.00;99112.41;6077443;23;20198;-84
2022/01/12 00:56:25;;;;;;;3.20;2.90;;;;;;;16.52;46.98;98682.44;6125662;23;20657;-84
2022/01/12 00:58:52;;;;;;;3.17;2.87;;;;;;;18.17;46.99;98951.91;6127171;23;20509;-83
2022/01/12 01:01:19;;;;;;;3.20;2.90;;;;;;;16.54;47.08;98718.97;6125144;23;20164;-83
2022/01/12 01:03:49;;;;;;;3.47;3.17;;;;;;;17.99;46.79;98930.34;6101913;23;20512;-82
2022/01/12 01:06:25;;;;;;;3.00;2.80;;;;;;;16.08;46.99;98594.88;6102870;23;20592;-83
2022/01/12 01:08:53;;;;;;;3.30;3.00;;;;;;;15.14;47.01;98427.03;6124253;23;20175;-83
2022/01/12 01:11:25;;;;;;;3.10;2.50;;;;;;;13.17;47.15;98087.03;6101555;23;20179;-83
2022/01/12 01:14:10;;;;;;;3.23;2.93;;;;;;;12.20;46.90;97936.31;6125397;23;20218;-82
2022/01/12 01:27:23;;;;;;;3.23;2.90;;;;;;;17.50;46.95;98874.53;6156239;23;20229;-82
2022/01/12 01:29:52;;;;;;;3.20;2.90;;;;;;;15.85;47.09;98590.78;6129695;23;20581;-83
2022/01/12 01:32:19;;;;;;;3.40;3.10;;;;;;;17.04;47.16;98801.97;6106865;23;20542;-80
2022/01/12 01:34:48;;;;;;;3.10;2.87;;;;;;;17.07;47.14;98811.44;6129659;23;20178;-82
2022/01/12 01:37:15;;;;;;;3.57;3.20;;;;;;;16.88;47.08;98828.75;6106672;23;20259;-82
2022/01/12 01:39:46;;;;;;;3.40;3.10;;;;;;;17.79;47.19;98939.22;6106135;23;20189;-82
2022/01/12 01:42:29;;;;;;;3.17;2.87;;;;;;;18.08;47.31;98989.47;6156379;23;20685;-81
2022/01/12 01:53:27;;;;;;;3.47;3.17;;;;;;;14.46;47.28;98413.00;6181837;23;20200;-90
2022/01/12 01:55:54;;;;;;;3.20;2.90;;;;;;;11.99;47.03;97994.34;6132614;23;20220;-90
2022/01/12 01:58:20;;;;;;;3.67;3.37;;;;;;;13.56;47.30;98277.53;6155883;23;20237;-89
2022/01/12 02:00:47;;;;;;;3.37;3.07;;;;;;;16.71;47.26;98840.31;6130900;23;20162;-89
2022/01/12 02:03:14;;;;;;;3.93;3.50;;;;;;;13.10;47.16;98234.59;6132522;23;20189;-88
2022/01/12 02:05:41;;;;;;;3.17;2.87;;;;;;;17.75;47.50;99045.72;6155595;23;20147;-90
2022/01/12 02:08:08;;;;;;;3.17;2.87;;;;;;;15.18;47.03;98485.56;6132306;23;20170;-90
2022/01/12 02:10:35;;;;;;;2.93;2.73;;;;;;;11.84;47.21;97903.44;6182225;23;20163;-90
2022/01/12 02:13:02;;;;;;;3.13;2.93;;;;;;;16.82;47.24;98778.47;6156737;23;20403;-88
2022/01/12 02:15:29;;;;;;;3.20;2.90;;;;;;;12.08;47.06;97939.63;6156114;23;20154;-90
2022/01/12 02:40:29;;;;;;;3.80;3.40;;;;;;;12.95;46.33;98145.16;6105743;23;20189;-88
2022/01/12 02:43:09;;;;;;;3.40;3.10;;;;;;;13.78;47.45;98235.38;6127807;23;20187;-88
2022/01/12 02:53:43;;;;;;;3.23;2.97;;;;;;;16.10;46.94;98633.88;6124944;23;20214;-83
2022/01/12 02:56:11;;;;;;;3.50;3.20;;;;;;;19.00;46.82;99126.31;6079622;23;20574;-84
2022/01/12 02:58:38;;;;;;;3.60;3.30;;;;;;;19.00;46.72;99141.59;6124099;23;20198;-83
2022/01/12 03:01:49;;;;;;;3.30;3.00;;;;;;;16.76;46.76;98775.50;6100134;23;20638;-83
2022/01/12 03:03:54;;;;;;;3.40;3.10;;;;;;;18.98;46.66;99134.66;6123996;23;20198;-83
2022/01/12 03:06:25;;;;;;;3.63;3.33;;;;;;;18.79;46.69;99108.75;6124255;23;20186;-83
2022/01/12 03:08:55;;;;;;;3.67;3.23;;;;;;;18.94;46.58;99136.09;6101045;23;20274;-83
2022/01/12 03:11:22;;;;;;;3.57;3.27;;;;;;;17.85;46.76;98976.88;6125617;23;20179;-84
2022/01/12 03:13:49;;;;;;;3.40;3.10;;;;;;;16.74;46.34;98804.97;6076863;23;20202;-83
2022/01/12 03:16:18;;;;;;;3.40;3.10;;;;;;;18.09;46.59;99015.00;6123880;23;20175;-83
2022/01/12 03:18:50;;;;;;;3.43;3.13;;;;;;;18.48;47.01;99121.16;6077090;23;20544;-82
2022/01/12 03:21:19;;;;;;;3.50;2.87;;;;;;;12.06;45.64;98054.47;6099812;23;20531;-82
2022/01/12 03:23:50;;;;;;;3.40;3.10;;;;;;;16.12;46.53;98710.94;6099658;23;20214;-82
2022/01/12 03:26:16;;;;;;;4.13;3.30;;;;;;;18.77;46.54;99113.75;6076274;23;20182;-83
2022/01/12 03:28:43;;;;;;;3.80;3.43;;;;;;;15.03;46.50;98453.25;6124416;23;20178;-83
2022/01/12 03:31:18;;;;;;;3.47;3.17;;;;;;;14.73;46.65;98421.63;6124457;23;20183;-83
2022/01/12 03:39:01;;;;;;;3.47;3.17;;;;;;;19.43;46.51;99226.84;6124253;23;20214;-83
2022/01/12 03:41:29;;;;;;;4.07;3.67;;;;;;;14.09;46.71;98314.16;6124438;23;20167;-83
2022/01/12 03:43:57;;;;;;;3.77;3.47;;;;;;;12.97;46.19;98189.03;6116811;23;20203;-89
2022/01/12 03:46:44;;;;;;;3.27;3.00;;;;;;;17.89;46.29;99075.50;6126794;23;20227;-89
2022/01/12 03:49:14;;;;;;;3.47;3.17;;;;;;;13.16;46.63;98133.22;6106297;23;20179;-90
2022/01/12 03:51:41;;;;;;;3.60;3.23;;;;;;;14.50;46.79;98396.38;6126892;23;20155;-89
2022/01/12 03:54:11;;;;;;;3.77;3.47;;;;;;;15.10;46.70;98544.03;6127031;23;20175;-89
2022/01/12 03:56:38;;;;;;;3.43;3.13;;;;;;;15.01;46.77;98475.91;6126734;23;20166;-89
2022/01/12 03:59:05;;;;;;;3.40;3.10;;;;;;;13.39;46.85;98232.53;6150861;23;20214;-91
2022/01/12 04:01:35;;;;;;;3.80;3.50;;;;;;;17.66;47.02;98943.41;6127094;23;20163;-89
2022/01/12 04:04:06;;;;;;;3.40;3.10;;;;;;;17.63;46.68;98912.69;6126870;23;20155;-90
2022/01/12 04:09:38;;;;;;;4.10;3.70;;;;;;;15.28;46.72;98525.06;6151158;23;20163;-90
2022/01/12 04:12:05;;;;;;;3.80;3.50;;;;;;;19.44;46.82;99229.50;6150869;23;20178;-90
2022/01/12 04:14:32;;;;;;;4.63;3.60;;;;;;;15.40;46.92;98576.59;6114486;23;20171;-83
2022/01/12 04:17:03;;;;;;;3.67;3.37;;;;;;;13.43;46.60;98173.91;6124099;23;20171;-82
2022/01/12 04:19:30;;;;;;;3.23;3.00;;;;;;;13.31;46.52;98167.09;6099052;23;20258;-84
2022/01/12 04:22:07;;;;;;;4.20;3.90;;;;;;;16.24;46.62;98663.59;6125800;23;20202;-83
2022/01/12 04:24:48;;;;;;;4.00;3.70;;;;;;;16.37;46.69;98679.75;6146566;23;20213;-82
2022/01/12 04:27:15;;;;;;;4.03;3.63;;;;;;;16.12;46.61;98643.38;6125641;23;20186;-81
2022/01/12 04:29:47;;;;;;;3.87;3.57;;;;;;;18.71;46.67;99090.44;6102210;23;20162;-82
2022/01/12 04:32:13;;;;;;;3.70;3.40;;;;;;;18.98;46.75;99138.06;6105093;23;20181;-81
2022/01/12 04:34:40;;;;;;;3.63;3.33;;;;;;;19.52;46.52;99232.53;6123918;23;20261;-82
2022/01/12 04:37:06;;;;;;;3.70;3.40;;;;;;;17.50;46.66;98872.00;6123842;23;20690;-82
2022/01/12 04:39:33;;;;;;;3.70;3.40;;;;;;;18.18;47.06;98986.75;6098380;23;20203;-80
2022/01/12 04:42:00;;;;;;;4.43;4.03;;;;;;;14.08;46.46;98295.63;6124035;23;20183;-81
2022/01/12 04:44:32;;;;;;;3.93;3.50;;;;;;;19.54;46.47;99231.00;6073352;23;20195;-82
2022/01/12 04:47:08;;;;;;;3.63;3.33;;;;;;;12.88;46.67;98214.44;6124384;23;20340;-83
2022/01/12 04:49:47;;;;;;;4.07;3.70;;;;;;;18.96;46.65;99137.09;6099333;23;20519;-83
2022/01/12 04:52:15;;;;;;;4.00;3.70;;;;;;;10.82;46.69;97742.34;6121865;23;20159;-81
2022/01/12 04:54:45;;;;;;;3.77;3.47;;;;;;;19.23;46.70;99191.50;6072850;23;20194;-82
2022/01/12 04:57:12;;;;;;;4.13;3.73;;;;;;;19.57;46.56;99254.13;6122054;23;20182;-82
2022/01/12 04:59:51;;;;;;;3.60;3.30;;;;;;;18.45;46.46;99062.41;6097666;23;20195;-82
2022/01/12 05:13:36;;;;;;;3.70;3.40;;;;;;;19.53;46.66;99277.66;6119943;23;20202;-82
2022/01/12 05:16:04;;;;;;;3.63;3.27;;;;;;;18.87;46.74;99166.19;6123002;23;20551;-82
2022/01/12 05:18:37;;;;;;;3.77;3.40;;;;;;;15.76;46.39;98658.59;6097623;23;20205;-83
2022/01/12 05:21:04;;;;;;;4.23;3.83;;;;;;;11.30;46.25;97845.66;6119764;23;20617;-82
2022/01/12 05:23:35;;;;;;;4.10;3.70;;;;;;;10.08;46.29;97630.38;6134165;23;20214;-82
2022/01/12 05:26:04;;;;;;;3.83;3.53;;;;;;;11.56;46.68;97981.81;6151774;23;20222;-82
2022/01/12 05:28:31;;;;;;;3.57;3.27;;;;;;;17.32;46.59;98901.22;6102193;23;20257;-82
2022/01/12 05:30:58;;;;;;;3.87;3.57;;;;;;;19.44;46.87;99275.41;6100684;23;20186;-81
2022/01/12 05:33:27;;;;;;;3.60;3.30;;;;;;;17.55;46.98;98939.25;6127546;23;20203;-82
2022/01/12 05:35:55;;;;;;;4.43;3.73;;;;;;;18.98;46.88;99194.13;6103063;23;20167;-82
2022/01/12 05:38:22;;;;;;;3.83;3.53;;;;;;;18.28;46.71;99118.91;6126467;23;20194;-82
2022/01/12 05:40:57;;;;;;;4.00;3.60;;;;;;;16.80;46.88;98828.22;6102956;23;20178;-82
2022/01/12 05:43:26;;;;;;;3.70;3.40;;;;;;;19.40;46.92;99298.94;6067660;23;20701;-81
2022/01/12 05:45:54;;;;;;;3.90;3.60;;;;;;;19.41;47.05;99302.34;6121086;23;20175;-83
2022/01/12 05:50:49;;;;;;;3.80;3.50;;;;;;;19.33;47.07;99304.41;6119672;23;20189;-90
2022/01/12 05:53:17;;;;;;;4.03;3.63;;;;;;;19.37;47.03;99308.94;6121938;23;20198;-89
2022/01/12 05:55:43;;;;;;;4.93;3.77;;;;;;;19.32;46.99;99299.19;6099107;23;20229;-91
2022/01/12 05:58:16;;;;;;;4.30;3.90;;;;;;;16.47;47.17;98804.72;6120875;23;20257;-90
2022/01/12 06:00:43;;;;;;;3.77;3.47;;;;;;;12.69;47.17;98276.91;6098956;23;20610;-87
2022/01/12 06:03:10;;;;;;;3.90;3.50;;;;;;;19.35;47.01;99320.69;6098503;23;20281;-88
2022/01/12 06:05:40;;;;;;;4.03;3.63;;;;;;;8.31;46.74;97392.72;6149577;23;20179;-89
2022/01/12 06:08:07;;;;;;;3.80;3.50;;;;;;;19.36;47.31;99324.13;6123816;23;20186;-89
2022/01/12 06:10:33;;;;;;;4.07;3.67;;;;;;;13.63;47.04;98402.59;6124630;23;20185;-90
2022/01/12 06:13:05;;;;;;;4.10;3.70;;;;;;;8.69;47.07;97551.84;6100758;23;20466;-80
2022/01/12 06:15:32;;;;;;;4.10;3.70;;;;;;;8.76;47.11;97473.91;6100864;23;20572;-83
2022/01/12 06:18:00;;;;;;;4.00;3.63;;;;;;;19.36;47.27;99327.56;6124508;23;20182;-81
2022/01/12 06:20:35;;;;;;;3.97;3.67;;;;;;;18.91;47.31;99248.00;6125918;23;20174;-81
2022/01/12 06:23:02;;;;;;;4.03;3.63;;;;;;;17.31;47.20;98999.44;6093947;23;20211;-89
2022/01/12 06:25:29;;;;;;;3.70;3.40;;;;;;;11.27;46.79;97956.09;6093397;23;20178;-88
2022/01/12 06:28:09;;;;;;;3.63;3.33;;;;;;;11.27;47.24;98034.97;6118936;23;20186;-88
2022/01/12 06:33:26;;;;;;;4.10;3.63;;;;;;;15.67;46.99;98680.75;6098307;23;20206;-88
2022/01/12 06:35:56;;;;;;;3.90;3.50;;;;;;;15.50;46.94;98652.47;6093706;23;20179;-89
2022/01/12 06:38:25;;;;;;;4.13;3.80;;;;;;;15.70;46.87;98683.50;6116104;23;20206;-89
2022/01/12 06:40:52;;;;;;;4.57;4.17;;;;;;;19.43;47.08;99341.59;6069687;23;20194;-88
2022/01/12 06:43:22;;;;;;;4.10;3.70;;;;;;;16.06;47.05;98748.56;6116809;23;20205;-89
2022/01/12 06:45:49;;;;;;;4.10;3.70;;;;;;;19.44;46.91;99336.59;6117249;23;20178;-89
2022/01/12 06:48:15;;;;;;;3.40;3.10;;;;;;;10.80;46.85;97864.50;6118864;23;20643;-89
2022/01/12 06:50:42;;;;;;;4.10;3.70;;;;;;;11.34;46.54;97923.13;6117301;23;20175;-89
2022/01/12 06:53:09;;;;;;;3.80;3.50;;;;;;;16.09;46.86;98759.81;6092417;23;20205;-89
2022/01/12 06:55:36;;;;;;;3.73;3.43;;;;;;;15.97;46.58;98894.97;6116371;23;20178;-89
2022/01/12 06:58:03;;;;;;;3.70;3.40;;;;;;;15.16;46.87;98640.69;6117285;23;20652;-89
2022/01/12 07:00:32;;;;;;;4.27;3.63;;;;;;;13.38;46.34;98394.84;6118424;23;20203;-89
2022/01/12 07:03:00;;;;;;;4.03;3.70;;;;;;;19.50;46.66;99356.50;6116379;23;20548;-88
2022/01/12 07:05:27;;;;;;;4.00;3.60;;;;;;;9.67;46.61;97774.38;6116554;23;20186;-88
2022/01/12 07:07:54;;;;;;;4.07;3.77;;;;;;;15.29;46.73;98628.09;6118379;23;20698;-88
2022/01/12 07:10:24;;;;;;;3.60;3.30;;;;;;;9.03;46.72;97531.16;6116056;23;20531;-90
2022/01/12 07:13:01;;;;;;;3.60;3.30;;;;;;;9.87;46.67;97687.34;6094771;23;20262;-88
2022/01/12 07:15:28;;;;;;;3.87;3.50;;;;;;;19.55;46.58;99390.88;6117307;23;20174;-89
2022/01/12 07:18:03;;;;;;;4.60;4.20;;;;;;;17.79;46.56;99083.28;6118642;23;20179;-89
2022/01/12 07:20:32;;;;;;;4.20;3.80;;;;;;;10.96;46.47;97916.06;6117468;23;20722;-89
2022/01/12 07:22:59;;;;;;;4.07;3.67;;;;;;;18.90;46.65;99283.56;6125642;23;20264;-87
2022/01/12 07:25:28;;;;;;;4.13;3.73;;;;;;;10.77;46.51;97949.72;6149160;23;20167;-89
2022/01/12 07:27:55;;;;;;;4.17;3.77;;;;;;;15.67;46.46;98708.63;6123262;23;20189;-89
2022/01/12 07:30:24;;;;;;;4.37;3.97;;;;;;;8.71;46.57;97669.69;6123024;23;20174;-89
2022/01/12 07:32:51;;;;;;;4.20;3.80;;;;;;;13.23;46.56;98276.75;6123749;23;20256;-89
2022/01/12 07:35:29;;;;;;;4.07;3.77;;;;;;;16.05;46.42;98769.63;6077620;23;20163;-89
2022/01/12 07:37:59;;;;;;;4.07;3.67;;;;;;;19.55;46.43;99379.00;6145936;23;20237;-88
2022/01/12 07:40:25;;;;;;;3.77;3.47;;;;;;;18.48;46.33;99196.66;6149056;23;20248;-88
2022/01/12 07:42:52;;;;;;;4.30;3.90;;;;;;;19.55;46.43;99391.75;6098787;23;20206;-88
2022/01/12 07:45:19;;;;;;;4.33;3.93;;;;;;;19.13;46.42;99317.44;6098527;23;20173;-87
2022/01/12 07:47:45;;;;;;;3.87;3.57;;;;;;;17.33;46.59;99008.06;6097716;23;20220;-89
2022/01/12 07:50:12;;;;;;;4.27;3.87;;;;;;;18.33;46.31;99178.66;6100372;23;20186;-89
2022/01/12 07:52:38;;;;;;;4.23;3.83;;;;;;;19.50;46.33;99388.00;6099848;23;20290;-89
2022/01/12 07:55:06;;;;;;;3.97;3.60;;;;;;;17.56;46.39;99063.91;6074139;23;20213;-89
2022/01/12 07:57:32;;;;;;;4.20;3.80;;;;;;;19.72;46.44;99432.00;6075491;23;20213;-89
2022/01/12 07:59:59;;;;;;;4.03;3.57;;;;;;;18.59;46.63;99227.13;6098431;23;20677;-81
2022/01/12 08:02:26;;;;;;;4.20;3.87;;;;;;;19.75;46.42;99437.31;6148990;23;20305;-81
2022/01/12 08:04:52;;;;;;;4.60;4.20;;;;;;;19.75;46.19;99416.03;6122071;23;20182;-80
2022/01/12 08:07:19;;;;;;;3.83;3.53;;;;;;;18.57;45.85;99207.44;6120338;23;20206;-83
2022/01/12 08:09:46;;;;;;;3.77;3.47;;;;;;;19.74;46.28;99414.25;6121650;23;20206;-82
2022/01/12 08:12:13;;;;;;;4.07;3.63;;;;;;;19.18;46.05;99316.09;6122180;23;20266;-82
2022/01/12 08:14:40;;;;;;;4.37;3.97;;;;;;;19.12;46.32;99308.03;6097643;23;20597;-82
2022/01/12 08:17:06;;;;;;;4.47;4.07;;;;;;;19.27;46.38;99339.69;6097684;23;20208;-81
2022/01/12 08:19:37;;;;;;;3.80;3.40;;;;;;;16.84;45.95;98918.19;6098376;23;20229;-82
2022/01/12 08:22:04;;;;;;;4.17;3.77;;;;;;;18.33;46.23;99188.84;6100491;23;20189;-81
2022/01/12 08:24:30;;;;;;;3.70;3.40;;;;;;;18.49;46.13;99245.13;6092694;23;20317;-82
2022/01/12 08:27:06;;;;;;;4.37;3.97;;;;;;;19.64;46.35;99437.38;6117493;23;20642;-82
2022/01/12 08:29:32;;;;;;;4.57;3.63;;;;;;;17.94;46.25;99136.09;6092611;23;20174;-81
2022/01/12 08:31:59;;;;;;;5.80;3.33;;;;;;;19.76;46.37;99463.72;6117146;23;20214;-79
2022/01/12 08:34:26;;;;;;;4.20;3.80;;;;;;;19.25;46.34;99374.38;6093086;23;20211;-82
2022/01/12 08:36:53;;;;;;;4.20;3.80;;;;;;;17.74;46.22;99113.47;6092669;23;20666;-81
2022/01/12 08:39:19;;;;;;;4.40;4.00;;;;;;;18.57;46.31;99260.91;6093208;23;20238;-81
2022/01/12 08:41:46;;;;;;;4.50;3.93;;;;;;;19.19;46.37;99380.72;6118685;23;20183;-80
2022/01/12 08:44:30;;;;;;;4.90;4.10;;;;;;;19.69;46.46;99477.72;6116816;23;20203;-81
2022/01/12 08:46:57;;;;;;;4.40;4.00;;;;;;;19.18;46.22;99384.03;6093649;23;20206;-81
2022/01/12 08:49:23;;;;;;;4.17;3.77;;;;;;;19.67;46.35;99473.31;6118753;23;20179;-80
2022/01/12 08:51:50;;;;;;;5.67;5.03;;;;;;;18.74;46.85;99309.66;6117075;23;20194;-81
2022/01/12 08:54:17;;;;;;;5.20;4.30;;;;;;;19.66;46.43;99471.53;6093114;23;20237;-82
2022/01/12 08:56:43;;;;;;;5.50;4.47;;;;;;;18.92;46.41;99349.13;6118608;23;20186;-81
2022/01/12 08:59:10;;;;;;;5.87;4.37;;;;;;;19.00;46.43;99370.94;6116980;23;20209;-81
2022/01/12 09:01:36;;;;;;;4.73;4.10;;;;;;;19.63;46.58;99481.53;6118786;23;20182;-81
2022/01/12 09:04:03;;;;;;;4.63;4.17;;;;;;;19.03;46.79;99365.16;6116710;23;20202;-81
2022/01/12 09:06:30;;;;;;;4.70;4.30;;;;;;;19.60;46.71;99464.34;6117808;23;20516;-80
2022/01/12 09:08:57;;;;;;;4.10;3.73;;;;;;;18.42;46.56;99259.88;6118555;23;20214;-81
2022/01/12 09:11:23;;;;;;;4.40;4.00;;;;;;;19.00;46.99;99370.94;6093734;23;20261;-81
2022/01/12 09:13:50;;;;;;;4.50;4.07;;;;;;;18.69;46.68;99322.88;6118590;23;20209;-82
2022/01/12 09:16:16;;;;;;;6.53;4.23;;;;;;;19.00;46.66;99382.78;6094494;23;20552;-81
2022/01/12 09:18:43;;;;;;;4.77;4.27;;;;;;;16.01;46.72;98857.25;6120830;23;20245;-81
2022/01/12 09:21:10;;;;;;;6.10;5.10;;;;;;;18.08;46.15;99218.44;6094541;23;20226;-80
2022/01/12 09:23:37;;;;;;;11.10;8.23;;;;;;;19.13;43.69;99415.97;6093783;23;20245;-80
2022/01/12 09:26:03;;;;;;;13.43;9.17;;;;;;;18.79;42.25;99360.91;6118913;23;20213;-80
2022/01/12 09:28:31;;;;;;;15.50;11.83;;;;;;;18.64;38.44;99335.28;6118733;23;20190;-80
2022/01/12 09:30:57;;;;;;;14.97;12.07;;;;;;;18.34;36.81;99286.41;6094962;23;20631;-81
2022/01/12 09:33:24;;;;;;;22.63;12.20;;;;;;;18.25;36.84;99289.22;6120109;23;20210;-82
2022/01/12 09:35:53;;;;;;;15.10;13.17;;;;;;;17.72;38.03;99209.13;6118225;23;20270;-82
2022/01/12 09:38:20;;;;;;;14.97;13.37;;;;;;;17.23;38.26;99137.75;6095042;23;20183;-81
2022/01/12 09:40:46;;;;;;;12.83;11.53;;;;;;;18.41;38.32;99342.97;6118884;23;20298;-82
2022/01/12 09:43:13;;;;;;;14.37;12.47;;;;;;;18.56;39.08;99389.03;6094596;23;20234;-82
2022/01/12 09:45:43;;;;;;;13.40;12.00;;;;;;;18.38;39.86;99347.84;6094880;23;20179;-82
2022/01/12 09:48:10;;;;;;;13.97;12.57;;;;;;;18.54;40.10;99372.75;6095025;23;20484;-82
2022/01/12 09:50:37;;;;;;;14.17;11.93;;;;;;;17.89;40.78;99246.78;6119029;23;20163;-82
2022/01/12 09:53:04;;;;;;;14.43;11.37;;;;;;;18.26;40.75;99316.41;6094965;23;20498;-82
2022/01/12 09:55:30;;;;;;;14.37;12.50;;;;;;;19.24;41.01;99482.19;6094149;23;20167;-82
2022/01/12 09:57:57;;;;;;;13.43;12.00;;;;;;;17.74;41.19;99221.97;6119090;23;20554;-81
2022/01/12 10:00:25;;;;;;;13.57;11.27;;;;;;;18.38;41.42;99334.28;6070840;23;20226;-81
2022/01/12 10:02:51;;;;;;;12.03;10.63;;;;;;;17.18;41.65;99128.94;6094961;23;20214;-82
2022/01/12 10:05:19;;;;;;;14.57;11.50;;;;;;;19.23;41.33;99484.66;6094451;23;20261;-82
2022/01/12 10:07:46;;;;;;;12.07;10.73;;;;;;;19.23;41.73;99488.09;6070510;23;20178;-81
2022/01/12 10:10:17;;;;;;;12.00;10.80;;;;;;;19.22;41.93;99473.56;6094385;23;20175;-81
2022/01/12 10:12:54;;;;;;;12.50;11.20;;;;;;;16.96;41.79;99062.13;6120138;23;20221;-81
2022/01/12 10:15:20;;;;;;;12.93;10.80;;;;;;;16.16;42.24;98936.09;6070813;23;20577;-81
2022/01/12 10:17:47;;;;;;;13.30;11.10;;;;;;;18.86;42.29;99426.81;6094502;23;20557;-81
2022/01/12 10:20:19;;;;;;;11.40;10.20;;;;;;;17.69;42.51;99210.56;6070669;23;20566;-81
2022/01/12 10:25:19;;;;;;;10.97;9.73;;;;;;;16.80;42.56;99056.72;6178826;23;20741;-91
2022/01/12 10:27:46;;;;;;;11.03;9.80;;;;;;;18.55;42.63;99361.78;6106280;23;20201;-91
2022/01/12 10:30:23;;;;;;;11.90;10.70;;;;;;;18.82;43.10;99414.63;6107203;23;20189;-92
2022/01/12 10:33:09;;;;;;;10.93;9.77;;;;;;;18.76;42.99;99422.75;6107059;23;20520;-90
2022/01/12 10:35:37;;;;;;;19.83;12.40;;;;;;;18.56;40.11;99376.28;6100908;23;20170;-91
2022/01/12 10:38:14;;;;;;;16.17;12.33;;;;;;;18.93;39.87;99440.09;6075633;23;20195;-88
2022/01/12 10:40:47;;;;;;;13.67;11.40;;;;;;;19.24;40.05;99483.84;6082116;23;20662;-90
2022/01/12 10:43:29;;;;;;;13.07;11.33;;;;;;;19.23;40.67;99470.25;6126504;23;20233;-90
2022/01/12 10:45:56;;;;;;;12.13;10.80;;;;;;;18.52;40.88;99347.19;6124385;23;20265;-90
2022/01/12 10:48:25;;;;;;;11.77;10.57;;;;;;;18.65;41.15;99371.84;6105994;23;20266;-90
2022/01/12 10:50:56;;;;;;;12.33;11.00;;;;;;;19.18;41.28;99474.13;6081971;23;20225;-89
2022/01/12 10:53:31;;;;;;;11.63;10.43;;;;;;;19.03;42.07;99436.50;6080126;23;20233;-90
2022/01/12 10:56:14;;;;;;;11.63;10.17;;;;;;;18.91;42.27;99413.63;6107320;23;20645;-90
2022/01/12 10:58:42;;;;;;;11.47;10.27;;;;;;;18.93;42.31;99421.38;6080564;23;20233;-90
2022/01/12 11:01:09;;;;;;;12.37;9.90;;;;;;;18.70;42.40;99370.47;6081030;23;20230;-91
2022/01/12 11:03:37;;;;;;;11.80;10.60;;;;;;;19.03;42.74;99417.00;6104244;23;20539;-91
2022/01/12 11:06:05;;;;;;;11.77;10.47;;;;;;;18.87;42.76;99390.38;6079331;23;20174;-91
2022/01/12 11:08:32;;;;;;;11.67;10.10;;;;;;;18.84;42.99;99408.88;6080266;23;20205;-89
2022/01/12 11:10:59;;;;;;;10.70;9.60;;;;;;;19.05;42.92;99437.50;6078159;23;20229;-88
2022/01/12 11:13:26;;;;;;;11.13;10.03;;;;;;;18.90;42.87;99423.69;6101750;23;20226;-88
2022/01/12 11:15:53;;;;;;;11.57;10.37;;;;;;;19.19;42.85;99480.13;6078273;23;20208;-89
2022/01/12 11:18:25;;;;;;;10.17;8.83;;;;;;;19.17;43.01;99474.94;6080431;23;20468;-91
2022/01/12 11:20:53;;;;;;;11.37;9.07;;;;;;;18.86;43.19;99426.81;6128978;23;20249;-91
2022/01/12 11:23:20;;;;;;;10.27;9.27;;;;;;;19.22;43.25;99485.44;6126387;23;20213;-90
2022/01/12 11:25:49;;;;;;;11.13;9.50;;;;;;;19.08;43.01;99459.00;6076713;23;20274;-90
2022/01/12 11:28:26;;;;;;;10.17;9.07;;;;;;;19.37;43.15;99519.66;6105070;23;20190;-90
2022/01/12 11:30:54;;;;;;;10.17;9.17;;;;;;;19.38;43.50;99524.88;6105362;23;20162;-90
2022/01/12 11:33:22;;;;;;;9.10;8.20;;;;;;;19.08;43.29;99468.28;6129324;23;20191;-91
2022/01/12 11:35:50;;;;;;;9.37;8.37;;;;;;;19.22;43.27;99491.41;6104763;23;20158;-90
2022/01/12 11:38:28;;;;;;;9.10;8.13;;;;;;;19.16;43.23;99485.00;6104560;23;20202;-91
2022/01/12 11:40:57;;;;;;;8.83;7.93;;;;;;;18.94;43.40;99434.22;6105187;23;20178;-90
2022/01/12 11:43:25;;;;;;;8.97;8.07;;;;;;;19.18;43.28;99478.34;6102632;23;20233;-89
2022/01/12 11:46:06;;;;;;;9.27;8.37;;;;;;;18.85;43.61;99407.19;6102816;23;20237;-89
2022/01/12 11:48:35;;;;;;;9.50;8.57;;;;;;;19.09;43.50;99454.75;6126230;23;20245;-90
2022/01/12 11:51:02;;;;;;;9.20;8.20;;;;;;;18.80;43.53;99401.78;6126746;23;20185;-89
2022/01/12 11:53:31;;;;;;;8.57;7.67;;;;;;;19.06;43.65;99452.00;6077381;23;20225;-88
2022/01/12 11:56:10;;;;;;;8.70;7.80;;;;;;;19.39;43.60;99503.69;6078873;23;20244;-88
2022/01/12 11:58:55;;;;;;;8.30;7.50;;;;;;;19.01;43.64;99427.88;6102329;23;20159;-88
2022/01/12 12:01:22;;;;;;;9.73;8.50;;;;;;;19.37;43.70;99489.06;6102783;23;20596;-87
2022/01/12 12:03:59;;;;;;;8.87;7.97;;;;;;;19.07;43.70;99441.91;6152010;23;20250;-87
2022/01/12 12:06:27;;;;;;;8.43;7.53;;;;;;;19.00;43.93;99424.44;6102564;23;20160;-89
2022/01/12 12:08:57;;;;;;;8.60;7.80;;;;;;;18.87;44.05;99414.19;6126537;23;20182;-88
2022/01/12 12:11:28;;;;;;;8.67;7.80;;;;;;;19.21;44.14;99466.69;6125131;23;20180;-89
2022/01/12 12:14:05;;;;;;;8.20;7.40;;;;;;;18.66;44.23;99366.84;6105910;23;20237;-91
2022/01/12 12:16:33;;;;;;;8.63;7.73;;;;;;;19.06;44.31;99444.34;6110660;23;20162;-92
2022/01/12 12:19:03;;;;;;;7.73;7.00;;;;;;;18.93;44.37;99404.44;6104466;23;20214;-89
2022/01/12 12:21:31;;;;;;;8.03;7.23;;;;;;;18.72;44.18;99363.84;6100470;23;20182;-88
2022/01/12 12:24:14;;;;;;;9.47;7.67;;;;;;;19.19;44.41;99454.63;6119516;23;20218;-87
2022/01/12 12:26:44;;;;;;;7.97;7.17;;;;;;;19.01;44.57;99399.84;6095636;23;20256;-88
2022/01/12 12:29:10;;;;;;;8.20;7.33;;;;;;;18.84;44.48;99363.03;6096764;23;20706;-91
2022/01/12 12:31:38;;;;;;;8.07;7.27;;;;;;;18.80;44.72;99358.47;6098238;23;20567;-89
2022/01/12 12:34:22;;;;;;;8.80;7.90;;;;;;;18.71;44.53;99331.50;6121822;23;20589;-90
2022/01/12 12:36:57;;;;;;;9.67;7.50;;;;;;;19.01;44.67;99397.31;6096982;23;20199;-88
2022/01/12 12:39:24;;;;;;;13.10;11.27;;;;;;;19.06;43.56;99403.56;6095763;23;20170;-88
2022/01/12 12:41:50;;;;;;;12.07;10.67;;;;;;;19.06;43.72;99401.94;6070700;23;20277;-88
2022/01/12 12:44:25;;;;;;;11.50;10.30;;;;;;;19.08;43.90;99402.03;6073135;23;20202;-88
2022/01/12 12:46:52;;;;;;;12.87;10.40;;;;;;;19.00;44.34;99375.13;6072998;23;20163;-87
2022/01/12 12:49:19;;;;;;;11.97;10.43;;;;;;;18.90;44.38;99350.72;6119114;23;20178;-89
2022/01/12 12:51:45;;;;;;;14.17;10.30;;;;;;;18.45;44.77;99268.63;6093888;23;20237;-89
2022/01/12 12:54:13;;;;;;;12.07;9.77;;;;;;;18.66;44.40;99298.09;6069521;23;20194;-89
2022/01/12 12:57:07;;;;;;;12.63;9.73;;;;;;;18.56;44.42;99271.91;6098107;23;20183;-88
2022/01/12 12:59:34;;;;;;;12.33;10.67;;;;;;;18.79;44.50;99310.88;6094248;23;20166;-89
2022/01/12 13:02:13;;;;;;;13.37;10.47;;;;;;;18.73;44.61;99301.91;6071152;23;20194;-89
2022/01/12 13:04:40;;;;;;;10.90;9.77;;;;;;;19.30;44.74;99397.66;6069917;23;20202;-90